Time;durP1;ratioP1;P1;durP2;ratioP2;P2;SDS_P1;SDS_P2;PMS_P1;PMS_P2;Temp;Humidity;BMP_temperature;BMP_pressure;BME280_temperature;BME280_humidity;BME280_pressure;Samples;Min_cycle;Max_cycle;Signal;HPM_P1;HPM_P2
2023/05/03 00:00:25;;;;;;;0.75;0.75;;;0.30;99.90;;;;;;5052817;28;20194;-69
2023/05/03 00:02:52;;;;;;;0.80;0.80;;;0.30;99.90;;;;;;5035049;28;20653;-69
2023/05/03 00:05:19;;;;;;;0.70;0.70;;;0.30;99.90;;;;;;5052897;28;20217;-69
2023/05/03 00:07:45;;;;;;;0.75;0.75;;;0.30;99.90;;;;;;5054763;28;20209;-69
2023/05/03 00:10:12;;;;;;;0.60;0.60;;;0.20;99.90;;;;;;5057038;28;20217;-69
2023/05/03 00:12:39;;;;;;;0.60;0.60;;;0.20;99.90;;;;;;5038281;28;20684;-69
2023/05/03 00:15:05;;;;;;;0.55;0.55;;;0.10;99.90;;;;;;5056930;28;20682;-69
2023/05/03 00:17:32;;;;;;;0.80;0.80;;;0.10;99.90;;;;;;5055407;28;20288;-69
2023/05/03 00:19:58;;;;;;;0.70;0.70;;;0.00;99.90;;;;;;5056914;28;20221;-69
2023/05/03 00:22:24;;;;;;;0.70;0.70;;;0.00;99.90;;;;;;5056526;28;20739;-69
2023/05/03 00:24:50;;;;;;;0.65;0.65;;;0.00;99.90;;;;;;5039058;28;20722;-69
2023/05/03 00:27:17;;;;;;;0.60;0.60;;;-0.10;99.90;;;;;;5056638;28;20194;-68
2023/05/03 00:29:43;;;;;;;0.70;0.70;;;-0.10;99.90;;;;;;5056520;28;20712;-69
2023/05/03 00:32:09;;;;;;;0.85;0.85;;;-0.20;99.90;;;;;;5038785;28;20224;-68
2023/05/03 00:34:36;;;;;;;0.80;0.80;;;-0.20;99.90;;;;;;5038485;28;20198;-69
2023/05/03 00:37:02;;;;;;;0.77;0.77;;;-0.10;99.90;;;;;;5055276;28;20185;-69
2023/05/03 00:39:31;;;;;;;0.73;0.73;;;-0.20;99.90;;;;;;5036485;28;20612;-69
2023/05/03 00:41:58;;;;;;;0.70;0.70;;;-0.20;99.90;;;;;;5036357;28;20190;-69
2023/05/03 00:44:24;;;;;;;0.70;0.70;;;-0.20;99.90;;;;;;5056048;28;20197;-69
2023/05/03 00:46:50;;;;;;;0.80;0.80;;;-0.30;99.90;;;;;;5056444;28;20190;-69
2023/05/03 00:49:17;;;;;;;0.70;0.70;;;-0.30;99.90;;;;;;5038446;28;20201;-69
2023/05/03 00:51:43;;;;;;;0.60;0.60;;;-0.40;99.90;;;;;;5056174;28;20214;-68
2023/05/03 00:54:10;;;;;;;0.80;0.80;;;-0.30;99.90;;;;;;5037639;28;20710;-68
2023/05/03 00:56:37;;;;;;;0.65;0.65;;;-0.40;99.90;;;;;;5056020;28;20181;-69
2023/05/03 00:59:04;;;;;;;0.60;0.60;;;-0.50;99.90;;;;;;5056234;28;20235;-69
2023/05/03 01:01:31;;;;;;;0.90;0.90;;;-0.50;99.90;;;;;;5056125;28;20678;-71
2023/05/03 01:04:01;;;;;;;0.52;0.52;;;-0.60;99.90;;;;;;5072497;22;20235;-70
2023/05/03 01:07:01;;;;;;;0.80;0.80;;;-0.60;99.90;;;;;;5075569;28;20704;-71
2023/05/03 01:10:03;;;;;;;0.60;0.60;;;-0.70;99.90;;;;;;5075709;28;20218;-70
2023/05/03 01:12:35;;;;;;;0.68;0.68;;;-0.70;99.90;;;;;;5075630;28;20245;-70
2023/05/03 01:15:14;;;;;;;0.70;0.70;;;-0.70;99.90;;;;;;5075907;28;20197;-72
2023/05/03 01:17:53;;;;;;;0.60;0.60;;;-0.70;99.90;;;;;;5074903;28;20185;-71
2023/05/03 01:20:23;;;;;;;0.60;0.60;;;-0.70;99.90;;;;;;5075485;28;20184;-71
2023/05/03 01:22:58;;;;;;;0.60;0.60;;;-0.80;99.90;;;;;;5075992;28;20201;-72
2023/05/03 01:25:25;;;;;;;0.63;0.63;;;-0.80;99.90;;;;;;5075314;28;20192;-71
2023/05/03 01:27:51;;;;;;;0.63;0.63;;;-0.90;99.90;;;;;;5075545;28;20674;-72
2023/05/03 01:30:18;;;;;;;0.70;0.70;;;-0.90;99.90;;;;;;5056821;28;20205;-71
2023/05/03 01:33:04;;;;;;;0.60;0.60;;;-0.90;99.90;;;;;;5055143;28;20692;-72
2023/05/03 01:35:36;;;;;;;0.70;0.70;;;-0.90;99.90;;;;;;5055169;28;20652;-72
2023/05/03 01:38:03;;;;;;;0.80;0.80;;;-0.90;99.90;;;;;;5045970;28;20194;-72
2023/05/03 01:40:31;;;;;;;0.55;0.55;;;-0.90;99.90;;;;;;5033886;28;20202;-72
2023/05/03 01:42:59;;;;;;;0.73;0.73;;;-1.00;99.90;;;;;;5035345;28;20664;-71
2023/05/03 01:45:25;;;;;;;0.77;0.77;;;-1.00;99.90;;;;;;5017270;28;20268;-71
2023/05/03 01:47:51;;;;;;;0.60;0.60;;;-0.90;99.90;;;;;;5035370;28;20226;-71
2023/05/03 01:50:17;;;;;;;0.70;0.70;;;-0.80;99.90;;;;;;5035247;28;20228;-71
2023/05/03 01:52:44;;;;;;;0.70;0.70;;;-0.80;99.90;;;;;;5034605;28;20202;-71
2023/05/03 01:55:12;;;;;;;0.80;0.80;;;-0.70;99.90;;;;;;5033761;28;20190;-71
2023/05/03 01:57:38;;;;;;;0.63;0.63;;;-0.70;99.90;;;;;;5034911;28;20285;-71
2023/05/03 02:00:05;;;;;;;0.80;0.80;;;-0.70;99.90;;;;;;5039628;28;20253;-72
2023/05/03 02:02:31;;;;;;;0.70;0.70;;;-0.80;99.90;;;;;;5054037;28;20190;-71
2023/05/03 02:04:57;;;;;;;0.70;0.70;;;-0.80;99.90;;;;;;5036118;28;20240;-71
2023/05/03 02:07:22;;;;;;;0.80;0.80;;;-0.90;99.90;;;;;;5054238;28;20193;-72
2023/05/03 02:09:48;;;;;;;0.70;0.70;;;-0.90;99.90;;;;;;5054720;28;20185;-71
2023/05/03 02:12:14;;;;;;;0.85;0.85;;;-1.00;99.90;;;;;;5054610;28;20239;-71
2023/05/03 02:14:40;;;;;;;0.70;0.70;;;-1.10;99.90;;;;;;5054501;28;20198;-71
2023/05/03 02:17:07;;;;;;;0.80;0.80;;;-1.20;99.90;;;;;;5054618;28;20185;-71
2023/05/03 02:19:33;;;;;;;0.60;0.60;;;-1.20;99.90;;;;;;5054363;28;20193;-70
2023/05/03 02:21:59;;;;;;;0.70;0.70;;;-1.20;99.90;;;;;;5054475;28;20181;-71
2023/05/03 02:24:24;;;;;;;0.70;0.70;;;-1.30;99.90;;;;;;5054341;28;20205;-71
2023/05/03 02:26:50;;;;;;;0.70;0.70;;;-1.30;99.90;;;;;;5054445;28;20276;-71
2023/05/03 02:29:16;;;;;;;0.80;0.80;;;-1.30;99.90;;;;;;5053538;28;20193;-71
2023/05/03 02:31:41;;;;;;;0.75;0.75;;;-1.30;99.90;;;;;;5054294;28;20732;-71
2023/05/03 02:34:09;;;;;;;0.60;0.60;;;-1.30;99.90;;;;;;5054148;28;20220;-71
2023/05/03 02:36:35;;;;;;;0.70;0.70;;;-1.30;99.90;;;;;;5054074;28;20239;-71
2023/05/03 02:39:01;;;;;;;0.60;0.60;;;-1.30;99.90;;;;;;5053752;28;20193;-70
2023/05/03 02:41:27;;;;;;;0.70;0.70;;;-1.30;99.90;;;;;;5054002;28;20276;-71
2023/05/03 02:43:53;;;;;;;0.60;0.60;;;-1.30;99.90;;;;;;5053528;28;20277;-71
2023/05/03 02:46:18;;;;;;;0.70;0.70;;;-1.30;99.90;;;;;;5053790;28;20715;-71
2023/05/03 02:48:44;;;;;;;0.60;0.60;;;-1.40;99.90;;;;;;5035952;28;20240;-71
2023/05/03 02:51:10;;;;;;;0.80;0.80;;;-1.40;99.90;;;;;;5053835;28;20196;-71
2023/05/03 02:53:36;;;;;;;0.80;0.80;;;-1.40;99.90;;;;;;5053710;28;20664;-72
2023/05/03 02:56:01;;;;;;;0.65;0.65;;;-1.40;99.90;;;;;;5050870;28;20205;-71
2023/05/03 02:58:27;;;;;;;0.70;0.70;;;-1.50;99.90;;;;;;5051398;28;20193;-72
2023/05/03 03:00:53;;;;;;;0.60;0.60;;;-1.50;99.90;;;;;;5046865;28;20293;-71
2023/05/03 03:03:18;;;;;;;0.60;0.60;;;-1.60;99.90;;;;;;5045717;28;20680;-71
2023/05/03 03:05:44;;;;;;;0.80;0.80;;;-1.60;99.90;;;;;;5054186;28;20193;-71
2023/05/03 03:08:10;;;;;;;0.77;0.77;;;-1.60;99.90;;;;;;5053670;28;20319;-71
2023/05/03 03:10:36;;;;;;;0.70;0.70;;;-1.60;99.90;;;;;;5053397;28;20537;-71
2023/05/03 03:13:01;;;;;;;0.73;0.73;;;-1.60;99.90;;;;;;5053487;28;20209;-72
2023/05/03 03:15:27;;;;;;;0.70;0.70;;;-1.60;99.90;;;;;;5053379;28;20182;-71
2023/05/03 03:17:56;;;;;;;0.70;0.70;;;-1.50;99.90;;;;;;5053492;28;20200;-71
2023/05/03 03:20:22;;;;;;;0.70;0.70;;;-1.50;99.90;;;;;;5053239;28;20189;-70
2023/05/03 03:22:47;;;;;;;0.60;0.60;;;-1.50;99.90;;;;;;5052735;28;20668;-71
2023/05/03 03:25:13;;;;;;;0.65;0.65;;;-1.50;99.90;;;;;;5053428;28;20286;-71
2023/05/03 03:27:39;;;;;;;0.68;0.68;;;-1.50;99.90;;;;;;5053253;28;20202;-71
2023/05/03 03:30:06;;;;;;;0.60;0.60;;;-1.50;99.90;;;;;;5053281;28;20668;-71
2023/05/03 03:32:32;;;;;;;0.70;0.70;;;-1.50;99.90;;;;;;5053115;28;20636;-71
2023/05/03 03:34:58;;;;;;;0.70;0.70;;;-1.40;99.90;;;;;;5035192;28;20197;-71
2023/05/03 03:37:24;;;;;;;0.70;0.70;;;-1.40;99.90;;;;;;5052779;28;20741;-71
2023/05/03 03:39:50;;;;;;;0.73;0.73;;;-1.40;99.90;;;;;;5053067;28;20193;-71
2023/05/03 03:42:15;;;;;;;0.70;0.70;;;-1.30;99.90;;;;;;5053090;28;20186;-71
2023/05/03 03:44:41;;;;;;;0.70;0.70;;;-1.20;99.90;;;;;;5052779;28;20265;-71
2023/05/03 03:47:07;;;;;;;0.60;0.60;;;-1.20;99.90;;;;;;5053162;28;20225;-71
2023/05/03 03:49:33;;;;;;;0.60;0.60;;;-1.10;99.90;;;;;;5052719;28;20235;-71
2023/05/03 03:51:58;;;;;;;0.60;0.60;;;-1.10;99.90;;;;;;5052783;28;20200;-70
2023/05/03 03:54:24;;;;;;;0.70;0.70;;;-1.10;99.90;;;;;;5052645;28;20237;-73
2023/05/03 03:56:51;;;;;;;0.70;0.70;;;-1.00;99.90;;;;;;5043398;28;20186;-72
2023/05/03 03:59:17;;;;;;;0.70;0.70;;;-0.90;99.90;;;;;;5032376;28;20186;-72
2023/05/03 04:01:43;;;;;;;0.70;0.70;;;-0.80;99.90;;;;;;5032872;28;20194;-71
2023/05/03 04:04:09;;;;;;;0.70;0.70;;;-0.70;99.90;;;;;;5032775;28;20245;-72
2023/05/03 04:06:35;;;;;;;0.70;0.70;;;-0.60;99.90;;;;;;5032919;28;20198;-71
2023/05/03 04:09:00;;;;;;;0.60;0.60;;;-0.50;99.90;;;;;;5033072;28;20255;-71
2023/05/03 04:11:26;;;;;;;0.70;0.70;;;-0.20;99.90;;;;;;5033397;28;20229;-71
2023/05/03 04:13:52;;;;;;;0.63;0.63;;;0.20;99.90;;;;;;5032485;28;20289;-71
2023/05/03 04:16:18;;;;;;;0.77;0.77;;;0.30;99.90;;;;;;5032746;28;20285;-71
2023/05/03 04:18:44;;;;;;;0.70;0.70;;;0.40;99.90;;;;;;5032790;28;20196;-71
2023/05/03 04:21:10;;;;;;;0.60;0.60;;;0.50;99.90;;;;;;5032795;28;20220;-72
2023/05/03 04:23:36;;;;;;;0.65;0.65;;;0.50;99.90;;;;;;5032719;28;20308;-72
2023/05/03 04:26:02;;;;;;;0.70;0.70;;;0.40;99.90;;;;;;5032895;28;20194;-71
2023/05/03 04:28:28;;;;;;;0.80;0.80;;;0.40;99.90;;;;;;5032464;28;20331;-72
2023/05/03 04:30:55;;;;;;;0.70;0.70;;;0.40;99.90;;;;;;5039897;28;20201;-72
2023/05/03 04:33:21;;;;;;;1.60;1.50;;;0.50;99.90;;;;;;5052328;28;20213;-71
2023/05/03 04:35:50;;;;;;;0.55;0.55;;;0.50;99.90;;;;;;5034609;28;20189;-71
2023/05/03 04:38:17;;;;;;;1.08;1.02;;;0.60;99.90;;;;;;5051814;28;20189;-73
2023/05/03 04:40:43;;;;;;;0.80;0.80;;;0.70;99.90;;;;;;5052497;28;20186;-72
2023/05/03 04:43:10;;;;;;;0.80;0.80;;;0.80;99.90;;;;;;5052570;28;20194;-72
2023/05/03 04:45:36;;;;;;;0.60;0.60;;;0.90;99.90;;;;;;5034489;28;20246;-72
2023/05/03 04:48:04;;;;;;;0.70;0.70;;;1.00;99.90;;;;;;5052455;28;20604;-72
2023/05/03 04:50:30;;;;;;;0.60;0.60;;;1.10;99.90;;;;;;5052101;28;20229;-71
2023/05/03 04:52:56;;;;;;;0.80;0.80;;;1.30;99.90;;;;;;5053394;28;20201;-71
2023/05/03 04:55:22;;;;;;;0.60;0.60;;;1.40;99.90;;;;;;5055869;28;20603;-72
2023/05/03 04:57:48;;;;;;;0.60;0.60;;;1.60;99.90;;;;;;5038536;28;20218;-71
2023/05/03 05:00:14;;;;;;;0.70;0.70;;;1.70;99.90;;;;;;5035755;28;20198;-71
2023/05/03 05:02:40;;;;;;;0.90;0.90;;;1.90;99.90;;;;;;5035727;28;20202;-71
2023/05/03 05:05:06;;;;;;;0.70;0.70;;;2.10;99.90;;;;;;5035878;28;20766;-71
2023/05/03 05:07:33;;;;;;;0.65;0.65;;;2.20;99.90;;;;;;5035762;28;20248;-72
2023/05/03 05:09:58;;;;;;;0.70;0.70;;;2.40;99.90;;;;;;5035934;28;20281;-72
2023/05/03 05:12:24;;;;;;;0.70;0.70;;;2.60;99.90;;;;;;5035621;28;20256;-71
2023/05/03 05:14:50;;;;;;;0.70;0.70;;;2.70;99.90;;;;;;5035703;28;20201;-71
2023/05/03 05:17:16;;;;;;;0.73;0.73;;;3.00;99.90;;;;;;5035525;28;20193;-71
2023/05/03 05:19:41;;;;;;;0.73;0.73;;;3.20;99.90;;;;;;5035867;28;20191;-71
2023/05/03 05:22:07;;;;;;;16.85;3.45;;;3.40;99.90;;;;;;5035764;28;20661;-71
2023/05/03 05:24:33;;;;;;;0.70;0.70;;;3.60;99.90;;;;;;5035626;28;20190;-72
2023/05/03 05:26:58;;;;;;;0.70;0.70;;;3.90;99.90;;;;;;5041139;28;20246;-72
2023/05/03 05:29:24;;;;;;;0.65;0.65;;;4.10;99.90;;;;;;5055309;28;20220;-71
2023/05/03 05:31:51;;;;;;;0.60;0.60;;;4.40;99.90;;;;;;5055489;28;20204;-71
2023/05/03 05:34:17;;;;;;;0.57;0.57;;;4.60;99.90;;;;;;5055308;28;20202;-72
2023/05/03 05:36:43;;;;;;;0.70;0.70;;;4.80;99.90;;;;;;5055227;28;20693;-73
2023/05/03 05:39:09;;;;;;;0.60;0.60;;;5.00;99.90;;;;;;5055178;28;20204;-71
2023/05/03 05:41:34;;;;;;;0.60;0.60;;;5.10;99.90;;;;;;5055117;28;20193;-72
2023/05/03 05:44:00;;;;;;;0.75;0.75;;;5.30;99.90;;;;;;5055234;28;20280;-71
2023/05/03 05:46:26;;;;;;;0.70;0.70;;;5.50;99.90;;;;;;5054723;28;20572;-72
2023/05/03 05:48:52;;;;;;;0.70;0.70;;;5.60;99.90;;;;;;5055158;28;20563;-72
2023/05/03 05:51:17;;;;;;;0.68;0.68;;;5.80;99.90;;;;;;5055102;28;20680;-72
2023/05/03 05:53:43;;;;;;;0.70;0.70;;;5.90;99.90;;;;;;5037180;28;20217;-72
2023/05/03 05:56:10;;;;;;;0.70;0.70;;;6.00;99.90;;;;;;5050384;28;20191;-74
2023/05/03 05:58:39;;;;;;;0.60;0.60;;;6.10;99.90;;;;;;5017268;28;20198;-74
2023/05/03 06:01:05;;;;;;;0.70;0.70;;;6.30;99.90;;;;;;5034456;28;20210;-74
2023/05/03 06:03:32;;;;;;;0.70;0.70;;;6.30;99.90;;;;;;5034108;28;20226;-72
2023/05/03 06:05:57;;;;;;;0.70;0.70;;;6.50;99.90;;;;;;5032767;28;20236;-73
2023/05/03 06:08:23;;;;;;;0.68;0.68;;;6.50;99.90;;;;;;5033641;28;20229;-72
2023/05/03 06:10:51;;;;;;;0.70;0.70;;;6.60;99.90;;;;;;5033826;28;20687;-72
2023/05/03 06:13:17;;;;;;;0.70;0.70;;;6.80;99.90;;;;;;5033639;28;20564;-72
2023/05/03 06:15:43;;;;;;;0.68;0.68;;;6.90;99.90;;;;;;5033822;28;20241;-72
2023/05/03 06:18:09;;;;;;;0.70;0.70;;;7.10;99.90;;;;;;5033737;28;20202;-73
2023/05/03 06:20:34;;;;;;;0.70;0.70;;;7.10;99.90;;;;;;5033139;28;20669;-72
2023/05/03 06:23:00;;;;;;;0.70;0.70;;;7.10;99.90;;;;;;5037295;28;20197;-72
2023/05/03 06:25:26;;;;;;;0.60;0.60;;;7.20;99.90;;;;;;5053280;28;20193;-72
2023/05/03 06:27:52;;;;;;;0.75;0.75;;;7.30;99.90;;;;;;5053391;28;20194;-72
2023/05/03 06:30:17;;;;;;;0.70;0.70;;;7.40;99.90;;;;;;5053212;28;20205;-72
2023/05/03 06:32:46;;;;;;;0.60;0.60;;;7.60;99.90;;;;;;5053096;28;20689;-73
2023/05/03 06:35:12;;;;;;;0.60;0.60;;;7.70;99.90;;;;;;5052875;28;20268;-73
2023/05/03 06:37:38;;;;;;;0.60;0.60;;;7.90;99.90;;;;;;5053137;28;20540;-73
2023/05/03 06:40:05;;;;;;;1.20;1.05;;;8.20;99.90;;;;;;5053211;28;20557;-73
2023/05/03 06:42:31;;;;;;;0.70;0.70;;;8.40;99.90;;;;;;5052807;28;20202;-72
2023/05/03 06:44:57;;;;;;;0.70;0.70;;;8.50;99.90;;;;;;5053200;28;20585;-72
2023/05/03 06:47:23;;;;;;;0.60;0.60;;;8.40;99.90;;;;;;5053009;28;20198;-72
2023/05/03 06:49:48;;;;;;;0.60;0.60;;;8.30;99.90;;;;;;5053115;28;20186;-72
2023/05/03 06:52:15;;;;;;;0.60;0.60;;;8.30;99.90;;;;;;5053058;28;20198;-72
2023/05/03 06:54:40;;;;;;;0.60;0.60;;;8.50;99.90;;;;;;5052853;28;20205;-73
2023/05/03 06:57:06;;;;;;;0.70;0.70;;;8.60;99.90;;;;;;5041157;28;20202;-72
2023/05/03 06:59:32;;;;;;;0.70;0.70;;;8.50;99.90;;;;;;5032881;28;20204;-72
2023/05/03 07:01:58;;;;;;;0.60;0.60;;;8.70;99.90;;;;;;5032902;28;20198;-72
2023/05/03 07:04:24;;;;;;;0.60;0.60;;;8.80;99.90;;;;;;4986659;28;1338671;-71
2023/05/03 07:06:50;;;;;;;0.60;0.60;;;8.90;99.90;;;;;;5033560;28;20202;-72
2023/05/03 07:09:16;;;;;;;0.70;0.70;;;9.00;99.90;;;;;;5033751;28;20190;-72
2023/05/03 07:11:48;;;;;;;0.60;0.60;;;9.10;99.90;;;;;;5033651;28;20194;-72
2023/05/03 07:14:14;;;;;;;0.60;0.60;;;9.40;99.90;;;;;;5015838;28;20217;-73
2023/05/03 07:16:40;;;;;;;0.60;0.60;;;9.60;99.90;;;;;;5032582;28;20194;-73
2023/05/03 07:19:05;;;;;;;0.60;0.60;;;9.60;99.90;;;;;;5035986;28;20182;-73
2023/05/03 07:21:32;;;;;;;0.60;0.60;;;9.80;99.90;;;;;;5053250;28;20193;-72
2023/05/03 07:23:58;;;;;;;0.60;0.60;;;9.90;99.90;;;;;;5053367;28;20547;-72
2023/05/03 07:26:27;;;;;;;0.60;0.60;;;10.00;99.90;;;;;;5035250;28;20224;-72
2023/05/03 07:28:53;;;;;;;0.60;0.60;;;10.30;99.90;;;;;;5053170;28;20198;-72
2023/05/03 07:31:22;;;;;;;0.60;0.60;;;10.40;99.90;;;;;;5053198;28;20574;-72
2023/05/03 07:33:48;;;;;;;0.50;0.50;;;10.50;99.90;;;;;;5053224;28;20304;-73
2023/05/03 07:36:13;;;;;;;0.60;0.60;;;10.60;99.90;;;;;;5053193;28;20189;-73
2023/05/03 07:38:39;;;;;;;0.60;0.60;;;10.70;99.90;;;;;;5052788;28;20312;-73
2023/05/03 07:41:05;;;;;;;0.60;0.60;;;10.80;99.90;;;;;;5053196;28;20606;-73
2023/05/03 07:43:31;;;;;;;0.55;0.55;;;10.80;99.90;;;;;;5053062;28;20193;-74
2023/05/03 07:45:57;;;;;;;0.60;0.60;;;11.00;99.90;;;;;;5035118;28;20193;-73
2023/05/03 07:48:22;;;;;;;0.60;0.60;;;11.00;99.90;;;;;;5052976;28;20208;-72
2023/05/03 07:50:48;;;;;;;0.45;0.45;;;11.10;99.90;;;;;;5053193;28;20196;-73
2023/05/03 07:53:14;;;;;;;0.60;0.60;;;11.20;99.90;;;;;;5052762;28;20201;-73
2023/05/03 07:55:40;;;;;;;0.60;0.60;;;11.30;99.90;;;;;;5052300;28;20194;-74
2023/05/03 07:58:06;;;;;;;0.60;0.60;;;11.50;99.90;;;;;;5032871;28;20194;-74
2023/05/03 08:00:31;;;;;;;0.55;0.55;;;11.70;99.90;;;;;;5033214;28;20190;-73
2023/05/03 08:02:57;;;;;;;0.52;0.52;;;11.70;99.90;;;;;;5033259;28;20202;-73
2023/05/03 08:05:23;;;;;;;0.60;0.60;;;11.80;99.90;;;;;;5033066;28;20262;-74
2023/05/03 08:07:49;;;;;;;0.50;0.50;;;11.80;99.90;;;;;;5033272;28;20190;-73
2023/05/03 08:10:15;;;;;;;0.60;0.60;;;11.70;99.90;;;;;;5033645;28;20240;-74
2023/05/03 08:12:41;;;;;;;0.50;0.50;;;11.70;99.90;;;;;;5033206;28;20660;-73
2023/05/03 08:15:08;;;;;;;0.50;0.50;;;11.80;99.90;;;;;;5033756;28;20228;-74
2023/05/03 08:17:44;;;;;;;0.60;0.60;;;11.70;99.90;;;;;;5052963;28;20258;-73
2023/05/03 08:20:11;;;;;;;0.60;0.60;;;11.60;99.90;;;;;;5053164;28;20667;-73
2023/05/03 08:22:39;;;;;;;0.50;0.50;;;11.80;99.90;;;;;;5052877;28;20185;-73
2023/05/03 08:25:05;;;;;;;1.50;0.90;;;12.00;99.90;;;;;;5053033;28;20720;-73
2023/05/03 08:27:32;;;;;;;0.60;0.60;;;12.10;99.90;;;;;;5052468;28;20220;-72
2023/05/03 08:29:59;;;;;;;0.60;0.60;;;12.10;99.90;;;;;;5056567;28;20673;-73
2023/05/03 08:32:25;;;;;;;0.52;0.52;;;12.40;99.90;;;;;;5056465;28;20530;-73
2023/05/03 08:34:53;;;;;;;0.50;0.50;;;12.40;99.90;;;;;;5056288;28;20220;-73
2023/05/03 08:37:19;;;;;;;0.50;0.50;;;12.60;99.90;;;;;;5052671;28;20229;-72
2023/05/03 08:39:46;;;;;;;0.50;0.50;;;12.60;99.90;;;;;;5036610;28;20202;-73
2023/05/03 08:42:12;;;;;;;0.47;0.47;;;12.60;99.90;;;;;;5018719;28;20229;-73
2023/05/03 08:44:46;;;;;;;0.52;0.52;;;12.90;99.90;;;;;;5036403;28;20209;-73
2023/05/03 08:47:15;;;;;;;1.25;0.70;;;13.00;99.90;;;;;;5036283;28;20197;-73
2023/05/03 08:49:41;;;;;;;0.50;0.50;;;12.90;99.90;;;;;;5036211;28;20202;-73
2023/05/03 08:52:10;;;;;;;0.60;0.60;;;13.10;99.90;;;;;;5036379;28;20194;-73
2023/05/03 08:54:36;;;;;;;0.50;0.50;;;13.30;99.20;;;;;;5036067;28;20210;-73
2023/05/03 08:57:03;;;;;;;0.50;0.50;;;13.20;99.00;;;;;;5047206;28;20232;-73
2023/05/03 08:59:29;;;;;;;0.50;0.50;;;13.40;99.90;;;;;;5056003;28;20194;-74
2023/05/03 09:01:54;;;;;;;0.50;0.50;;;13.60;97.10;;;;;;5037971;28;20206;-74
2023/05/03 09:04:35;;;;;;;0.50;0.50;;;13.50;96.60;;;;;;5055769;28;20260;-74
2023/05/03 09:07:11;;;;;;;0.50;0.50;;;13.50;97.80;;;;;;5055931;28;20201;-74
2023/05/03 09:09:37;;;;;;;0.50;0.50;;;13.80;94.90;;;;;;5055854;28;20217;-74
2023/05/03 09:12:04;;;;;;;0.47;0.47;;;14.00;96.20;;;;;;5037883;28;20247;-74
2023/05/03 09:14:30;;;;;;;0.50;0.50;;;14.10;96.30;;;;;;5037757;28;20704;-74
2023/05/03 09:17:12;;;;;;;0.40;0.40;;;14.10;96.10;;;;;;5055772;28;20200;-74
2023/05/03 09:19:54;;;;;;;0.40;0.40;;;14.40;96.60;;;;;;5055656;28;20207;-74
2023/05/03 09:22:23;;;;;;;0.50;0.50;;;14.10;93.90;;;;;;5055553;28;20268;-74
2023/05/03 09:24:53;;;;;;;0.50;0.50;;;13.90;94.50;;;;;;5055729;28;20281;-74
2023/05/03 09:27:22;;;;;;;0.60;0.60;;;13.90;95.40;;;;;;5055412;28;20190;-74
2023/05/03 09:29:49;;;;;;;0.40;0.40;;;13.70;94.80;;;;;;5055403;28;20708;-74
2023/05/03 09:32:16;;;;;;;0.40;0.40;;;13.80;94.30;;;;;;5055292;28;20247;-74
2023/05/03 09:34:42;;;;;;;0.50;0.50;;;13.90;94.20;;;;;;5055184;28;20210;-74
2023/05/03 09:37:08;;;;;;;0.40;0.40;;;14.10;93.50;;;;;;5035482;28;20759;-74
2023/05/03 09:39:35;;;;;;;0.50;0.50;;;14.30;93.00;;;;;;5034521;28;20273;-74
2023/05/03 09:42:18;;;;;;;0.60;0.60;;;14.30;93.00;;;;;;5017716;28;20190;-74
2023/05/03 09:44:52;;;;;;;0.43;0.43;;;14.30;91.70;;;;;;5034535;28;20269;-74
2023/05/03 09:47:19;;;;;;;0.43;0.43;;;14.60;90.70;;;;;;5034576;28;20194;-74
2023/05/03 09:49:44;;;;;;;0.50;0.50;;;14.30;90.80;;;;;;5035240;28;20198;-74
2023/05/03 09:52:10;;;;;;;0.45;0.45;;;14.50;91.90;;;;;;5036970;28;20288;-75
2023/05/03 09:54:37;;;;;;;0.40;0.40;;;14.70;92.20;;;;;;5073885;28;20220;-74
2023/05/03 09:57:04;;;;;;;0.40;0.40;;;14.60;87.80;;;;;;5075092;28;20220;-74
2023/05/03 09:59:32;;;;;;;0.40;0.40;;;14.40;89.20;;;;;;5056833;28;20290;-74
2023/05/03 10:02:01;;;;;;;0.40;0.40;;;14.60;90.00;;;;;;5074753;28;20655;-75
2023/05/03 10:04:28;;;;;;;0.38;0.38;;;14.90;90.30;;;;;;5074508;28;20709;-74
2023/05/03 10:07:04;;;;;;;0.50;0.50;;;15.40;90.80;;;;;;5074832;28;20284;-74
2023/05/03 10:09:41;;;;;;;0.40;0.40;;;15.40;88.00;;;;;;5056947;28;20242;-74
2023/05/03 10:12:10;;;;;;;0.40;0.40;;;15.00;85.40;;;;;;5067639;28;20196;-74
2023/05/03 10:14:36;;;;;;;0.40;0.40;;;15.20;89.20;;;;;;5054189;28;20241;-73
2023/05/03 10:17:07;;;;;;;0.40;0.40;;;15.30;84.90;;;;;;5054756;28;20648;-75
2023/05/03 10:19:39;;;;;;;0.40;0.40;;;15.40;87.10;;;;;;5054401;28;20194;-74
2023/05/03 10:22:07;;;;;;;0.30;0.30;;;15.60;79.50;;;;;;5054520;28;20711;-74
2023/05/03 10:24:34;;;;;;;0.40;0.40;;;15.30;82.60;;;;;;5036679;28;20204;-74
2023/05/03 10:27:00;;;;;;;0.40;0.40;;;15.50;86.80;;;;;;5054567;28;20212;-74
2023/05/03 10:29:44;;;;;;;0.40;0.40;;;15.60;85.20;;;;;;5054322;28;20197;-75
2023/05/03 10:32:28;;;;;;;0.40;0.40;;;16.00;84.30;;;;;;5054118;28;20190;-73
2023/05/03 10:35:00;;;;;;;0.30;0.30;;;16.40;82.00;;;;;;5054457;28;20691;-75
2023/05/03 10:37:27;;;;;;;0.50;0.50;;;16.30;85.30;;;;;;5049824;28;20669;-75
2023/05/03 10:39:53;;;;;;;0.50;0.50;;;16.50;83.00;;;;;;5034192;28;20194;-75
2023/05/03 10:42:23;;;;;;;0.30;0.30;;;15.80;80.60;;;;;;5032941;28;20262;-74
2023/05/03 10:44:50;;;;;;;0.40;0.40;;;15.90;82.50;;;;;;5034288;28;20226;-75
2023/05/03 10:47:17;;;;;;;0.30;0.30;;;16.40;81.60;;;;;;5033994;28;20197;-74
2023/05/03 10:49:44;;;;;;;0.30;0.30;;;16.50;79.40;;;;;;5045923;28;20193;-74
2023/05/03 10:52:34;;;;;;;0.30;0.30;;;16.70;79.80;;;;;;5053310;28;20263;-74
2023/05/03 10:55:01;;;;;;;0.40;0.40;;;16.00;76.50;;;;;;5053934;28;20208;-74
2023/05/03 10:57:30;;;;;;;0.40;0.40;;;15.40;80.70;;;;;;5053108;28;20652;-74
2023/05/03 10:59:57;;;;;;;0.40;0.40;;;15.10;78.10;;;;;;5053850;28;20671;-74
2023/05/03 11:02:31;;;;;;;0.40;0.40;;;15.30;84.30;;;;;;5053314;28;20206;-74
2023/05/03 11:05:02;;;;;;;0.30;0.30;;;15.70;78.60;;;;;;5053579;28;20826;-74
2023/05/03 11:07:28;;;;;;;0.40;0.40;;;16.00;78.60;;;;;;5053539;28;20204;-74
2023/05/03 11:09:55;;;;;;;0.32;0.32;;;16.40;80.10;;;;;;5053636;28;20186;-74
2023/05/03 11:12:20;;;;;;;0.32;0.32;;;16.00;78.10;;;;;;5053378;28;20217;-74
2023/05/03 11:14:46;;;;;;;0.30;0.30;;;15.20;78.70;;;;;;5053428;28;20237;-74
2023/05/03 11:17:12;;;;;;;0.40;0.40;;;14.90;80.80;;;;;;5053572;28;20687;-74
2023/05/03 11:19:38;;;;;;;0.50;0.50;;;14.20;80.90;;;;;;5053364;28;20194;-74
2023/05/03 11:22:05;;;;;;;0.40;0.40;;;14.40;83.20;;;;;;5053204;28;20189;-74
2023/05/03 11:24:30;;;;;;;0.40;0.40;;;15.40;79.10;;;;;;5053397;28;20190;-74
2023/05/03 11:26:56;;;;;;;0.40;0.40;;;15.60;77.10;;;;;;5053342;28;20197;-74
2023/05/03 11:29:24;;;;;;;0.50;0.50;;;15.60;77.40;;;;;;5053058;28;20196;-74
2023/05/03 11:31:51;;;;;;;0.40;0.40;;;15.30;80.60;;;;;;5035314;28;20224;-75
2023/05/03 11:34:17;;;;;;;0.40;0.40;;;14.90;78.80;;;;;;5053079;28;20699;-74
2023/05/03 11:36:43;;;;;;;0.40;0.40;;;14.30;80.20;;;;;;5053015;28;20189;-74
2023/05/03 11:39:11;;;;;;;0.40;0.40;;;14.00;81.20;;;;;;5034525;28;20194;-74
2023/05/03 11:41:37;;;;;;;0.40;0.40;;;13.50;83.40;;;;;;5032420;28;20661;-74
2023/05/03 11:44:04;;;;;;;0.40;0.40;;;13.30;84.00;;;;;;5033307;28;20201;-74
2023/05/03 11:46:33;;;;;;;0.43;0.43;;;13.10;87.10;;;;;;5049669;28;20208;-74
2023/05/03 11:48:59;;;;;;;0.40;0.40;;;13.00;85.80;;;;;;5053059;28;20706;-75
2023/05/03 11:51:26;;;;;;;1.65;0.88;;;12.90;85.80;;;;;;5034923;28;20198;-74
2023/05/03 11:53:52;;;;;;;0.40;0.40;;;12.90;89.00;;;;;;5053015;28;20207;-74
2023/05/03 11:56:19;;;;;;;0.40;0.40;;;13.00;87.80;;;;;;5052980;28;20186;-74
2023/05/03 11:59:03;;;;;;;0.43;0.43;;;13.00;86.50;;;;;;5052913;28;20239;-74
2023/05/03 12:01:29;;;;;;;0.50;0.50;;;13.20;86.10;;;;;;5034628;28;20194;-73
2023/05/03 12:04:00;;;;;;;0.40;0.40;;;13.20;85.20;;;;;;5051844;28;20236;-73
2023/05/03 12:06:31;;;;;;;0.50;0.50;;;12.90;85.80;;;;;;5052551;28;20198;-73
2023/05/03 12:08:58;;;;;;;0.40;0.40;;;12.90;86.80;;;;;;5052651;28;20204;-73
2023/05/03 12:11:24;;;;;;;0.50;0.50;;;12.90;87.30;;;;;;5052535;28;20201;-73
2023/05/03 12:13:57;;;;;;;0.40;0.40;;;13.00;88.00;;;;;;5052613;28;20568;-74
2023/05/03 12:16:23;;;;;;;0.50;0.50;;;13.10;88.90;;;;;;5034637;28;20204;-72
2023/05/03 12:19:01;;;;;;;0.47;0.47;;;13.10;87.00;;;;;;5052487;28;20205;-73
2023/05/03 12:21:46;;;;;;;0.40;0.40;;;13.00;89.30;;;;;;5052551;28;20564;-73
2023/05/03 12:24:16;;;;;;;0.50;0.50;;;12.90;90.10;;;;;;5052722;28;20189;-73
2023/05/03 12:26:43;;;;;;;0.40;0.40;;;13.00;89.40;;;;;;5052366;28;20284;-73
2023/05/03 12:29:09;;;;;;;0.40;0.40;;;13.10;88.50;;;;;;5052646;28;20201;-74
2023/05/03 12:31:36;;;;;;;0.45;0.45;;;13.10;90.00;;;;;;5052539;28;20193;-73
2023/05/03 12:34:03;;;;;;;0.40;0.40;;;13.00;88.80;;;;;;5052566;28;20604;-73
2023/05/03 12:36:31;;;;;;;0.40;0.40;;;13.20;91.60;;;;;;5052480;28;20558;-73
2023/05/03 12:38:57;;;;;;;0.40;0.40;;;14.00;90.90;;;;;;5031165;28;20186;-74
2023/05/03 12:41:26;;;;;;;0.38;0.38;;;14.80;91.00;;;;;;5037273;28;20221;-74
2023/05/03 12:43:52;;;;;;;0.35;0.35;;;16.00;88.30;;;;;;5052206;28;20196;-74
2023/05/03 12:46:18;;;;;;;0.35;0.35;;;16.20;82.70;;;;;;5052826;28;20197;-74
2023/05/03 12:48:44;;;;;;;0.38;0.38;;;15.90;83.70;;;;;;5052387;28;20205;-74
2023/05/03 12:51:10;;;;;;;0.40;0.40;;;15.20;85.80;;;;;;5052265;28;20190;-74